Metar z połowy godziny Komunikat METAR ze strony awiacja.imgw.pl Metar G30 EPPR METAR EPPR 230800Z 00000KT 3000 BR NSC M10/M12 Q1012 RMK M104 090 0/0=